PWSweather.com
Personal Weather Stations
Station Observations
WDJH1
Il, Wood Dale, IL 60191

IlWood Dale, IL 60191

Lat: 41.9730204, Lon: -87.9791968

Elevation: 730

Station Type:

High Low Average
Temperature 81.3°F27.4°C 52.9°F11.6°C 67.2°F19.6°C
Dew Point 49.0°F9.4°C 38.6°F3.7°C 44.4°F6.9°C
Winds 6.0 mph 9.7 kmh Calm Calm 2.0 mph S3.2 kmh S
Wind Gusts 17.0 mph27.4 kmh -- 5.0 mph8.0 kmh
Humidity 78% 22% 47%
Pressure 30.07 in1018.3 mb 29.97 in1014.9 mb -
Precipitation 0.00 in0.0 mm - -
Hour Temp Dew Point Humidity Winds Wind Gusts Pressure Precip Precip Rate Daily Precip Total
12:00 AM 58.2°F14.6°C 46.1°F7.8°C 64% 1.0 mph SSW1.6 kmh SSW 2.0 mph3.2 kmh 29.98 in1015.2 mb 0.00 in0.0 mm 0.00 in0.0 mm 0.00 in0.0 mm
12:15 AM 57.6°F14.2°C 45.9°F7.7°C 65% 1.0 mph SSW1.6 kmh SSW 2.0 mph3.2 kmh 29.98 in1015.2 mb 0.00 in0.0 mm 0.00 in0.0 mm 0.00 in0.0 mm
12:30 AM 57.5°F14.2°C 45.8°F7.7°C 65% 1.0 mph SSW1.6 kmh SSW 2.0 mph3.2 kmh 29.98 in1015.2 mb 0.00 in0.0 mm 0.00 in0.0 mm 0.00 in0.0 mm
12:45 AM 56.8°F13.8°C 46.3°F7.9°C 68% Calm Calm 2.0 mph3.2 kmh 29.99 in1015.6 mb 0.00 in0.0 mm 0.00 in0.0 mm 0.00 in0.0 mm
01:00 AM 55.6°F13.1°C 46.3°F7.9°C 71% Calm Calm -- 29.99 in1015.6 mb 0.00 in0.0 mm 0.00 in0.0 mm 0.00 in0.0 mm
01:15 AM 55.0°F12.8°C 45.8°F7.7°C 71% Calm Calm -- 29.99 in1015.6 mb 0.00 in0.0 mm 0.00 in0.0 mm 0.00 in0.0 mm
01:30 AM 54.4°F12.4°C 45.9°F7.7°C 73% Calm Calm -- 29.99 in1015.6 mb 0.00 in0.0 mm 0.00 in0.0 mm 0.00 in0.0 mm
01:45 AM 55.9°F13.3°C 46.3°F7.9°C 70% 1.0 mph SW1.6 kmh SW 2.0 mph3.2 kmh 29.99 in1015.6 mb 0.00 in0.0 mm 0.00 in0.0 mm 0.00 in0.0 mm
02:00 AM 55.6°F13.1°C 46.0°F7.8°C 70% Calm Calm 1.0 mph1.6 kmh 29.99 in1015.6 mb 0.00 in0.0 mm 0.00 in0.0 mm 0.00 in0.0 mm
02:15 AM 55.6°F13.1°C 46.0°F7.8°C 70% 1.0 mph SW1.6 kmh SW 2.0 mph3.2 kmh 29.99 in1015.6 mb 0.00 in0.0 mm 0.00 in0.0 mm 0.00 in0.0 mm
02:30 AM 55.5°F13.1°C 45.9°F7.7°C 70% 2.0 mph SW3.2 kmh SW 3.0 mph4.8 kmh 29.99 in1015.6 mb 0.00 in0.0 mm 0.00 in0.0 mm 0.00 in0.0 mm
02:45 AM 55.4°F13.0°C 45.4°F7.4°C 69% 1.0 mph WSW1.6 kmh WSW 2.0 mph3.2 kmh 29.99 in1015.6 mb 0.00 in0.0 mm 0.00 in0.0 mm 0.00 in0.0 mm
03:00 AM 55.1°F12.8°C 46.6°F8.1°C 73% Calm Calm 2.0 mph3.2 kmh 29.99 in1015.6 mb 0.00 in0.0 mm 0.00 in0.0 mm 0.00 in0.0 mm
03:15 AM 54.5°F12.5°C 47.1°F8.4°C 76% Calm Calm 1.0 mph1.6 kmh 29.99 in1015.6 mb 0.00 in0.0 mm 0.00 in0.0 mm 0.00 in0.0 mm
03:30 AM 54.1°F12.3°C 44.9°F7.2°C 71% 1.0 mph WSW1.6 kmh WSW 2.0 mph3.2 kmh 29.99 in1015.6 mb 0.00 in0.0 mm 0.00 in0.0 mm 0.00 in0.0 mm
03:45 AM 53.7°F12.1°C 45.6°F7.6°C 74% 1.0 mph SW1.6 kmh SW 2.0 mph3.2 kmh 29.99 in1015.6 mb 0.00 in0.0 mm 0.00 in0.0 mm 0.00 in0.0 mm
04:00 AM 53.4°F11.9°C 45.0°F7.2°C 73% 1.0 mph SW1.6 kmh SW 2.0 mph3.2 kmh 30.00 in1015.9 mb 0.00 in0.0 mm 0.00 in0.0 mm 0.00 in0.0 mm
04:15 AM 53.3°F11.8°C 45.6°F7.6°C 75% 1.0 mph SW1.6 kmh SW 2.0 mph3.2 kmh 30.00 in1015.9 mb 0.00 in0.0 mm 0.00 in0.0 mm 0.00 in0.0 mm
04:30 AM 53.1°F11.7°C 46.4°F8.0°C 78% Calm Calm 1.0 mph1.6 kmh 30.00 in1015.9 mb 0.00 in0.0 mm 0.00 in0.0 mm 0.00 in0.0 mm
04:45 AM 52.9°F11.6°C 45.9°F7.7°C 77% Calm Calm -- 30.01 in1016.3 mb 0.00 in0.0 mm 0.00 in0.0 mm 0.00 in0.0 mm
05:00 AM 54.7°F12.6°C 46.2°F7.9°C 73% Calm Calm 2.0 mph3.2 kmh 30.02 in1016.6 mb 0.00 in0.0 mm 0.00 in0.0 mm 0.00 in0.0 mm
05:15 AM 56.5°F13.6°C 46.4°F8.0°C 69% 1.0 mph NNW1.6 kmh NNW 2.0 mph3.2 kmh 30.02 in1016.6 mb 0.00 in0.0 mm 0.00 in0.0 mm 0.00 in0.0 mm
05:30 AM 57.9°F14.4°C 47.0°F8.3°C 67% Calm Calm 2.0 mph3.2 kmh 30.03 in1016.9 mb 0.00 in0.0 mm 0.00 in0.0 mm 0.00 in0.0 mm
05:45 AM 59.4°F15.2°C 47.2°F8.4°C 64% Calm Calm 1.0 mph1.6 kmh 30.03 in1016.9 mb 0.00 in0.0 mm 0.00 in0.0 mm 0.00 in0.0 mm
06:00 AM 60.9°F16.1°C 47.4°F8.6°C 61% Calm Calm 2.0 mph3.2 kmh 30.03 in1016.9 mb 0.00 in0.0 mm 0.00 in0.0 mm 0.00 in0.0 mm
06:15 AM 61.9°F16.6°C 47.9°F8.8°C 60% Calm Calm 2.0 mph3.2 kmh 30.04 in1017.3 mb 0.00 in0.0 mm 0.00 in0.0 mm 0.00 in0.0 mm
06:30 AM 62.7°F17.1°C 47.7°F8.7°C 58% Calm Calm 2.0 mph3.2 kmh 30.04 in1017.3 mb 0.00 in0.0 mm 0.00 in0.0 mm 0.00 in0.0 mm
06:45 AM 64.1°F17.8°C 47.6°F8.7°C 55% 1.0 mph NW1.6 kmh NW 3.0 mph4.8 kmh 30.04 in1017.3 mb 0.00 in0.0 mm 0.00 in0.0 mm 0.00 in0.0 mm
07:00 AM 65.6°F18.7°C 48.5°F9.2°C 54% Calm Calm 2.0 mph3.2 kmh 30.05 in1017.6 mb 0.00 in0.0 mm 0.00 in0.0 mm 0.00 in0.0 mm
07:15 AM 66.3°F19.1°C 48.7°F9.3°C 53% Calm Calm 2.0 mph3.2 kmh 30.06 in1017.9 mb 0.00 in0.0 mm 0.00 in0.0 mm 0.00 in0.0 mm
07:30 AM 67.1°F19.5°C 48.4°F9.1°C 51% 1.0 mph WNW1.6 kmh WNW 2.0 mph3.2 kmh 30.06 in1017.9 mb 0.00 in0.0 mm 0.00 in0.0 mm 0.00 in0.0 mm
07:45 AM 67.8°F19.9°C 48.5°F9.2°C 50% 1.0 mph WSW1.6 kmh WSW 4.0 mph6.4 kmh 30.06 in1017.9 mb 0.00 in0.0 mm 0.00 in0.0 mm 0.00 in0.0 mm
08:00 AM 68.4°F20.2°C 49.0°F9.4°C 50% 1.0 mph SE1.6 kmh SE 4.0 mph6.4 kmh 30.06 in1017.9 mb 0.00 in0.0 mm 0.00 in0.0 mm 0.00 in0.0 mm
08:15 AM 69.0°F20.6°C 47.4°F8.6°C 46% 2.0 mph WSW3.2 kmh WSW 4.0 mph6.4 kmh 30.06 in1017.9 mb 0.00 in0.0 mm 0.00 in0.0 mm 0.00 in0.0 mm
08:30 AM 71.1°F21.7°C 47.5°F8.6°C 43% 1.0 mph NW1.6 kmh NW 4.0 mph6.4 kmh 30.06 in1017.9 mb 0.00 in0.0 mm 0.00 in0.0 mm 0.00 in0.0 mm
08:45 AM 72.9°F22.7°C 46.5°F8.1°C 39% 1.0 mph W1.6 kmh W 4.0 mph6.4 kmh 30.06 in1017.9 mb 0.00 in0.0 mm 0.00 in0.0 mm 0.00 in0.0 mm
09:00 AM 72.5°F22.5°C 47.5°F8.6°C 41% 2.0 mph W3.2 kmh W 5.0 mph8.0 kmh 30.06 in1017.9 mb 0.00 in0.0 mm 0.00 in0.0 mm 0.00 in0.0 mm
09:15 AM 73.4°F23.0°C 44.1°F6.7°C 35% 2.0 mph NW3.2 kmh NW 5.0 mph8.0 kmh 30.07 in1018.3 mb 0.00 in0.0 mm 0.00 in0.0 mm 0.00 in0.0 mm
09:30 AM 74.4°F23.6°C 45.0°F7.2°C 35% 2.0 mph W3.2 kmh W 4.0 mph6.4 kmh 30.06 in1017.9 mb 0.00 in0.0 mm 0.00 in0.0 mm 0.00 in0.0 mm
09:45 AM 75.6°F24.2°C 42.8°F6.0°C 31% 3.0 mph NW4.8 kmh NW 9.0 mph14.5 kmh 30.06 in1017.9 mb 0.00 in0.0 mm 0.00 in0.0 mm 0.00 in0.0 mm
10:00 AM 75.5°F24.2°C 42.7°F5.9°C 31% 5.0 mph WNW8.0 kmh WNW 11.0 mph17.7 kmh 30.06 in1017.9 mb 0.00 in0.0 mm 0.00 in0.0 mm 0.00 in0.0 mm
10:15 AM 74.9°F23.8°C 40.5°F4.7°C 29% 6.0 mph WNW9.7 kmh WNW 11.0 mph17.7 kmh 30.05 in1017.6 mb 0.00 in0.0 mm 0.00 in0.0 mm 0.00 in0.0 mm
10:30 AM 74.8°F23.8°C 42.1°F5.6°C 31% 6.0 mph W9.7 kmh W 12.0 mph19.3 kmh 30.05 in1017.6 mb 0.00 in0.0 mm 0.00 in0.0 mm 0.00 in0.0 mm
10:45 AM 77.0°F25.0°C 43.2°F6.2°C 30% 2.0 mph NNW3.2 kmh NNW 7.0 mph11.3 kmh 30.04 in1017.3 mb 0.00 in0.0 mm 0.00 in0.0 mm 0.00 in0.0 mm
11:00 AM 76.4°F24.7°C 41.8°F5.4°C 29% 4.0 mph W6.4 kmh W 8.0 mph12.9 kmh 30.04 in1017.3 mb 0.00 in0.0 mm 0.00 in0.0 mm 0.00 in0.0 mm
11:15 AM 77.0°F25.0°C 40.4°F4.7°C 27% 6.0 mph WNW9.7 kmh WNW 11.0 mph17.7 kmh 30.04 in1017.3 mb 0.00 in0.0 mm 0.00 in0.0 mm 0.00 in0.0 mm
11:30 AM 75.7°F24.3°C 39.3°F4.1°C 27% 5.0 mph WSW8.0 kmh WSW 10.0 mph16.1 kmh 30.03 in1016.9 mb 0.00 in0.0 mm 0.00 in0.0 mm 0.00 in0.0 mm
11:45 AM 76.4°F24.7°C 39.0°F3.9°C 26% 6.0 mph W9.7 kmh W 17.0 mph27.4 kmh 30.03 in1016.9 mb 0.00 in0.0 mm 0.00 in0.0 mm 0.00 in0.0 mm
12:00 PM 78.7°F25.9°C 39.9°F4.4°C 25% 2.0 mph NW3.2 kmh NW 5.0 mph8.0 kmh 30.03 in1016.9 mb 0.00 in0.0 mm 0.00 in0.0 mm 0.00 in0.0 mm
12:15 PM 78.1°F25.6°C 40.4°F4.7°C 26% 5.0 mph WNW8.0 kmh WNW 13.0 mph20.9 kmh 30.02 in1016.6 mb 0.00 in0.0 mm 0.00 in0.0 mm 0.00 in0.0 mm
12:30 PM 77.9°F25.5°C 40.2°F4.6°C 26% 4.0 mph WNW6.4 kmh WNW 9.0 mph14.5 kmh 30.02 in1016.6 mb 0.00 in0.0 mm 0.00 in0.0 mm 0.00 in0.0 mm
12:45 PM 79.0°F26.1°C 40.2°F4.6°C 25% 4.0 mph WNW6.4 kmh WNW 9.0 mph14.5 kmh 30.01 in1016.3 mb 0.00 in0.0 mm 0.00 in0.0 mm 0.00 in0.0 mm
01:00 PM 78.9°F26.1°C 40.1°F4.5°C 25% 5.0 mph WNW8.0 kmh WNW 10.0 mph16.1 kmh 30.02 in1016.6 mb 0.00 in0.0 mm 0.00 in0.0 mm 0.00 in0.0 mm
01:15 PM 79.6°F26.4°C 41.7°F5.4°C 26% 4.0 mph NW6.4 kmh NW 10.0 mph16.1 kmh 30.01 in1016.3 mb 0.00 in0.0 mm 0.00 in0.0 mm 0.00 in0.0 mm
01:30 PM 79.9°F26.6°C 42.9°F6.1°C 27% 4.0 mph NW6.4 kmh NW 10.0 mph16.1 kmh 30.01 in1016.3 mb 0.00 in0.0 mm 0.00 in0.0 mm 0.00 in0.0 mm
01:45 PM 79.1°F26.2°C 41.3°F5.2°C 26% 6.0 mph WNW9.7 kmh WNW 11.0 mph17.7 kmh 30.01 in1016.3 mb 0.00 in0.0 mm 0.00 in0.0 mm 0.00 in0.0 mm
02:00 PM 79.6°F26.4°C 39.6°F4.2°C 24% 5.0 mph WNW8.0 kmh WNW 11.0 mph17.7 kmh 30.00 in1015.9 mb 0.00 in0.0 mm 0.00 in0.0 mm 0.00 in0.0 mm
02:15 PM 79.0°F26.1°C 40.2°F4.6°C 25% 3.0 mph W4.8 kmh W 8.0 mph12.9 kmh 29.99 in1015.6 mb 0.00 in0.0 mm 0.00 in0.0 mm 0.00 in0.0 mm
02:30 PM 81.0°F27.2°C 40.8°F4.9°C 24% 3.0 mph NW4.8 kmh NW 7.0 mph11.3 kmh 29.99 in1015.6 mb 0.00 in0.0 mm 0.00 in0.0 mm 0.00 in0.0 mm
02:45 PM 79.1°F26.2°C 41.3°F5.2°C 26% 5.0 mph WSW8.0 kmh WSW 11.0 mph17.7 kmh 29.98 in1015.2 mb 0.00 in0.0 mm 0.00 in0.0 mm 0.00 in0.0 mm
03:00 PM 79.6°F26.4°C 39.6°F4.2°C 24% 6.0 mph WNW9.7 kmh WNW 12.0 mph19.3 kmh 29.98 in1015.2 mb 0.00 in0.0 mm 0.00 in0.0 mm 0.00 in0.0 mm
03:15 PM 81.3°F27.4°C 38.8°F3.8°C 22% 2.0 mph NW3.2 kmh NW 5.0 mph8.0 kmh 29.98 in1015.2 mb 0.00 in0.0 mm 0.00 in0.0 mm 0.00 in0.0 mm
03:30 PM 79.7°F26.5°C 38.6°F3.7°C 23% 4.0 mph W6.4 kmh W 11.0 mph17.7 kmh 29.98 in1015.2 mb 0.00 in0.0 mm 0.00 in0.0 mm 0.00 in0.0 mm
03:45 PM 79.9°F26.6°C 38.8°F3.8°C 23% 5.0 mph WNW8.0 kmh WNW 10.0 mph16.1 kmh 29.98 in1015.2 mb 0.00 in0.0 mm 0.00 in0.0 mm 0.00 in0.0 mm
04:00 PM 80.5°F26.9°C 41.4°F5.2°C 25% 2.0 mph NW3.2 kmh NW 8.0 mph12.9 kmh 29.98 in1015.2 mb 0.00 in0.0 mm 0.00 in0.0 mm 0.00 in0.0 mm
04:15 PM 77.5°F25.3°C 46.9°F8.3°C 34% 4.0 mph E6.4 kmh E 9.0 mph14.5 kmh 29.97 in1014.9 mb 0.00 in0.0 mm 0.00 in0.0 mm 0.00 in0.0 mm
04:30 PM 76.6°F24.8°C 44.5°F6.9°C 32% 4.0 mph E6.4 kmh E 9.0 mph14.5 kmh 29.98 in1015.2 mb 0.00 in0.0 mm 0.00 in0.0 mm 0.00 in0.0 mm
04:45 PM 76.6°F24.8°C 44.5°F6.9°C 32% 2.0 mph E3.2 kmh E 7.0 mph11.3 kmh 29.97 in1014.9 mb 0.00 in0.0 mm 0.00 in0.0 mm 0.00 in0.0 mm
05:00 PM 75.7°F24.3°C 44.5°F6.9°C 33% 3.0 mph E4.8 kmh E 8.0 mph12.9 kmh 29.97 in1014.9 mb 0.00 in0.0 mm 0.00 in0.0 mm 0.00 in0.0 mm
05:15 PM 74.9°F23.8°C 43.8°F6.6°C 33% 3.0 mph E4.8 kmh E 9.0 mph14.5 kmh 29.97 in1014.9 mb 0.00 in0.0 mm 0.00 in0.0 mm 0.00 in0.0 mm
05:30 PM 74.2°F23.4°C 43.2°F6.2°C 33% 2.0 mph E3.2 kmh E 8.0 mph12.9 kmh 29.97 in1014.9 mb 0.00 in0.0 mm 0.00 in0.0 mm 0.00 in0.0 mm
05:45 PM 73.9°F23.3°C 43.8°F6.6°C 34% 2.0 mph E3.2 kmh E 7.0 mph11.3 kmh 29.97 in1014.9 mb 0.00 in0.0 mm 0.00 in0.0 mm 0.00 in0.0 mm
06:00 PM 73.3°F22.9°C 44.0°F6.7°C 35% 2.0 mph E3.2 kmh E 7.0 mph11.3 kmh 29.97 in1014.9 mb 0.00 in0.0 mm 0.00 in0.0 mm 0.00 in0.0 mm
06:15 PM 73.1°F22.8°C 43.8°F6.6°C 35% 1.0 mph E1.6 kmh E 6.0 mph9.7 kmh 29.97 in1014.9 mb 0.00 in0.0 mm 0.00 in0.0 mm 0.00 in0.0 mm
06:30 PM 72.5°F22.5°C 43.3°F6.3°C 35% 1.0 mph E1.6 kmh E 4.0 mph6.4 kmh 29.98 in1015.2 mb 0.00 in0.0 mm 0.00 in0.0 mm 0.00 in0.0 mm
06:45 PM 71.2°F21.8°C 43.6°F6.4°C 37% 1.0 mph E1.6 kmh E 5.0 mph8.0 kmh 29.98 in1015.2 mb 0.00 in0.0 mm 0.00 in0.0 mm 0.00 in0.0 mm
07:00 PM 70.1°F21.2°C 44.0°F6.7°C 39% Calm Calm 3.0 mph4.8 kmh 29.98 in1015.2 mb 0.00 in0.0 mm 0.00 in0.0 mm 0.00 in0.0 mm
07:15 PM 69.1°F20.6°C 43.8°F6.6°C 40% Calm Calm 2.0 mph3.2 kmh 29.98 in1015.2 mb 0.00 in0.0 mm 0.00 in0.0 mm 0.00 in0.0 mm
07:30 PM 68.1°F20.1°C 44.7°F7.1°C 43% Calm Calm 2.0 mph3.2 kmh 29.98 in1015.2 mb 0.00 in0.0 mm 0.00 in0.0 mm 0.00 in0.0 mm
07:45 PM 66.7°F19.3°C 43.5°F6.4°C 43% Calm Calm 2.0 mph3.2 kmh 29.99 in1015.6 mb 0.00 in0.0 mm 0.00 in0.0 mm 0.00 in0.0 mm
08:00 PM 66.3°F19.1°C 44.3°F6.8°C 45% Calm Calm 3.0 mph4.8 kmh 30.00 in1015.9 mb 0.00 in0.0 mm 0.00 in0.0 mm 0.00 in0.0 mm
08:15 PM 64.7°F18.2°C 46.7°F8.2°C 52% Calm Calm 1.0 mph1.6 kmh 30.00 in1015.9 mb 0.00 in0.0 mm 0.00 in0.0 mm 0.00 in0.0 mm
08:30 PM 63.6°F17.6°C 45.1°F7.3°C 51% Calm Calm -- 30.00 in1015.9 mb 0.00 in0.0 mm 0.00 in0.0 mm 0.00 in0.0 mm
08:45 PM 62.7°F17.1°C 44.3°F6.8°C 51% Calm Calm -- 30.00 in1015.9 mb 0.00 in0.0 mm 0.00 in0.0 mm 0.00 in0.0 mm
09:00 PM 62.0°F16.7°C 44.7°F7.1°C 53% Calm Calm -- 30.01 in1016.3 mb 0.00 in0.0 mm 0.00 in0.0 mm 0.00 in0.0 mm
09:15 PM 61.2°F16.2°C 46.3°F7.9°C 58% Calm Calm -- 30.01 in1016.3 mb 0.00 in0.0 mm 0.00 in0.0 mm 0.00 in0.0 mm
09:30 PM 60.6°F15.9°C 44.8°F7.1°C 56% Calm Calm -- 30.01 in1016.3 mb 0.00 in0.0 mm 0.00 in0.0 mm 0.00 in0.0 mm
09:45 PM 60.2°F15.7°C 45.8°F7.7°C 59% Calm Calm -- 30.01 in1016.3 mb 0.00 in0.0 mm 0.00 in0.0 mm 0.00 in0.0 mm
10:00 PM 59.4°F15.2°C 45.9°F7.7°C 61% Calm Calm -- 30.01 in1016.3 mb 0.00 in0.0 mm 0.00 in0.0 mm 0.00 in0.0 mm
10:15 PM 59.3°F15.2°C 45.0°F7.2°C 59% Calm Calm -- 30.01 in1016.3 mb 0.00 in0.0 mm 0.00 in0.0 mm 0.00 in0.0 mm
10:30 PM 59.2°F15.1°C 44.4°F6.9°C 58% Calm Calm -- 30.01 in1016.3 mb 0.00 in0.0 mm 0.00 in0.0 mm 0.00 in0.0 mm
10:45 PM 59.2°F15.1°C 43.0°F6.1°C 55% Calm Calm -- 30.01 in1016.3 mb 0.00 in0.0 mm 0.00 in0.0 mm 0.00 in0.0 mm
11:00 PM 59.2°F15.1°C 45.8°F7.7°C 61% Calm Calm -- 30.01 in1016.3 mb 0.00 in0.0 mm 0.00 in0.0 mm 0.00 in0.0 mm
11:15 PM 59.6°F15.3°C 46.1°F7.8°C 61% Calm Calm 5.0 mph8.0 kmh 30.02 in1016.6 mb 0.00 in0.0 mm 0.00 in0.0 mm 0.00 in0.0 mm
11:30 PM 58.7°F14.8°C 44.8°F7.1°C 60% Calm Calm -- 30.01 in1016.3 mb 0.00 in0.0 mm 0.00 in0.0 mm 0.00 in0.0 mm
11:45 PM 57.5°F14.2°C 45.4°F7.4°C 64% Calm Calm 2.0 mph3.2 kmh 30.00 in1015.9 mb 0.00 in0.0 mm 0.00 in0.0 mm 0.00 in0.0 mm